Terminal Aerodrome Forecast
Issued by NWS

Home | Current Version | Previous Version | Text Only | Print | Product List | Glossary On
Versions: 1 2 3 4 5 6 7 8 9 10 11 12 13 14
154
FTUS42 KILM 262320
TAFCRE
TAF
KCRE 262320Z 2700/2724 16007KT P6SM SKC
     FM270200 00000KT P6SM FEW060
      TEMPO 2709/2711 6SM BR
     FM271200 05006KT 6SM HZ BR SKC=

USA.gov is the U.S. government's official web portal to all federal, state and local government web resources and services.